Terminal Aerodrome Forecast
Issued by NWS

Home | Current Version | Previous Version | Text Only | Print | Product List | Glossary On
Versions: 1 2 3 4 5 6 7 8 9 10 11 12 13 14
000
FTUS43 KOAX 182320
TAFBFF
TAF
KBFF 182320Z 1900/1924 VRB05KT P6SM VCTS SCT025 BKN050CB
     FM190400 34018G26KT P6SM VCSH BKN015 OVC030
     FM191800 32025G35KT P6SM SCT080=

USA.gov is the U.S. government's official web portal to all federal, state and local government web resources and services.